Time;durP1;ratioP1;P1;durP2;ratioP2;P2;SDS_P1;SDS_P2;PMS_P1;PMS_P2;Temp;Humidity;BMP_temperature;BMP_pressure;BME280_temperature;BME280_humidity;BME280_pressure;Samples;Min_cycle;Max_cycle;Signal;HPM_P1;HPM_P2
2021/11/03 00:02:20;;;;;;;9.77;7.22;;;23.20;39.10;;;;;;4764519;29;20087;-58
2021/11/03 00:04:48;;;;;;;8.93;7.05;;;23.20;39.10;;;;;;4764524;29;20132;-58
2021/11/03 00:07:15;;;;;;;10.13;7.75;;;23.20;39.10;;;;;;4764833;29;20104;-58
2021/11/03 00:09:42;;;;;;;10.70;8.02;;;23.20;39.10;;;;;;4741701;29;20091;-58
2021/11/03 00:12:14;;;;;;;9.85;7.53;;;23.20;39.60;;;;;;4746650;30;20091;-58
2021/11/03 00:14:41;;;;;;;9.40;7.05;;;23.20;39.10;;;;;;4746404;30;20060;-58
2021/11/03 00:17:09;;;;;;;9.82;7.20;;;23.20;39.10;;;;;;4746138;30;20106;-58
2021/11/03 00:19:36;;;;;;;8.55;7.35;;;23.20;39.10;;;;;;4743797;30;20078;-59
2021/11/03 00:22:03;;;;;;;11.13;7.55;;;23.20;39.00;;;;;;4764156;29;20059;-59
2021/11/03 00:24:34;;;;;;;9.18;7.55;;;23.20;39.00;;;;;;4763844;29;20098;-58
2021/11/03 00:27:02;;;;;;;9.82;7.72;;;23.20;39.00;;;;;;4763865;29;20055;-59
2021/11/03 00:29:29;;;;;;;10.40;6.97;;;23.20;39.00;;;;;;4748196;29;20059;-58
2021/11/03 00:31:56;;;;;;;10.02;7.55;;;23.20;39.00;;;;;;4746253;30;20055;-58
2021/11/03 00:34:24;;;;;;;11.55;7.50;;;23.20;39.00;;;;;;4745792;30;20063;-58
2021/11/03 00:36:51;;;;;;;9.10;6.85;;;23.20;39.00;;;;;;4744791;30;20048;-59
2021/11/03 00:39:22;;;;;;;8.77;6.63;;;23.20;39.00;;;;;;4751804;29;20487;-58
2021/11/03 00:41:50;;;;;;;8.25;6.47;;;23.20;39.00;;;;;;4763573;29;20055;-58
2021/11/03 00:44:17;;;;;;;9.55;6.60;;;23.20;39.00;;;;;;4761960;29;20506;-58
2021/11/03 00:46:45;;;;;;;10.20;7.05;;;23.20;39.00;;;;;;4762992;29;20112;-58
2021/11/03 00:49:12;;;;;;;8.75;6.90;;;23.20;39.00;;;;;;4754630;29;20094;-58
2021/11/03 00:51:39;;;;;;;8.40;6.72;;;23.20;39.00;;;;;;4749169;30;20138;-58
2021/11/03 00:54:06;;;;;;;9.90;6.75;;;23.20;39.00;;;;;;4747336;30;20128;-58
2021/11/03 00:56:34;;;;;;;10.77;6.85;;;23.20;39.00;;;;;;4748253;30;20467;-58
2021/11/03 00:59:02;;;;;;;10.55;6.88;;;23.20;39.00;;;;;;4749522;29;20502;-59
2021/11/03 01:01:30;;;;;;;8.80;6.75;;;23.20;39.00;;;;;;4766069;29;20521;-58
2021/11/03 01:03:59;;;;;;;9.00;6.35;;;23.20;39.00;;;;;;4766597;29;20788;-58
2021/11/03 01:06:26;;;;;;;9.60;6.80;;;23.20;39.00;;;;;;4765950;29;20458;-58
2021/11/03 01:08:53;;;;;;;8.18;6.43;;;23.20;39.00;;;;;;4756692;29;20511;-58
2021/11/03 01:11:20;;;;;;;8.90;6.50;;;23.20;39.00;;;;;;4745746;30;20060;-58
2021/11/03 01:14:01;;;;;;;8.27;6.35;;;23.10;38.90;;;;;;4747334;30;20387;-58
2021/11/03 01:16:29;;;;;;;7.43;6.00;;;23.10;38.90;;;;;;4747932;30;20063;-58
2021/11/03 01:18:57;;;;;;;9.55;6.70;;;23.10;38.90;;;;;;4750170;29;20059;-58
2021/11/03 01:21:25;;;;;;;8.77;6.30;;;23.10;38.90;;;;;;4764917;29;20120;-59
2021/11/03 01:23:52;;;;;;;8.43;6.45;;;23.10;39.00;;;;;;4764639;29;20112;-58
2021/11/03 01:26:20;;;;;;;7.93;6.35;;;23.10;38.90;;;;;;4765980;29;20091;-58
2021/11/03 01:28:47;;;;;;;9.00;6.72;;;23.10;38.90;;;;;;4760411;29;20052;-58
2021/11/03 01:31:14;;;;;;;8.15;6.38;;;23.10;38.90;;;;;;4762338;30;20059;-58
2021/11/03 01:33:42;;;;;;;9.05;6.47;;;23.10;38.90;;;;;;4766387;29;20583;-59
2021/11/03 01:36:11;;;;;;;8.43;5.95;;;23.10;39.00;;;;;;4765444;29;20150;-58
2021/11/03 01:38:39;;;;;;;8.07;6.18;;;23.10;38.90;;;;;;4760728;29;20554;-58
2021/11/03 01:41:07;;;;;;;8.98;6.38;;;23.10;38.90;;;;;;4763608;29;20070;-58
2021/11/03 01:44:03;;;;;;;6.88;5.72;;;23.10;38.90;;;;;;4765755;29;20644;-58
2021/11/03 01:46:38;;;;;;;7.57;5.75;;;23.10;38.90;;;;;;4764887;29;20094;-58
2021/11/03 01:49:16;;;;;;;7.82;6.30;;;23.00;38.80;;;;;;4758683;29;20095;-59
2021/11/03 01:51:58;;;;;;;8.13;6.15;;;23.10;38.90;;;;;;4765520;29;20091;-58
2021/11/03 01:54:35;;;;;;;8.52;6.38;;;23.10;38.90;;;;;;4765478;29;20097;-58
2021/11/03 01:57:07;;;;;;;8.50;5.85;;;23.10;38.90;;;;;;4765320;29;20577;-58
2021/11/03 01:59:41;;;;;;;7.45;6.00;;;23.10;38.80;;;;;;4758312;29;20059;-58
2021/11/03 02:02:09;;;;;;;7.70;5.95;;;23.10;38.80;;;;;;4765772;29;20063;-58
2021/11/03 02:04:37;;;;;;;9.15;6.10;;;23.10;38.90;;;;;;4764965;29;20060;-58
2021/11/03 02:07:08;;;;;;;8.15;6.15;;;23.10;38.90;;;;;;4765219;29;20090;-59
2021/11/03 02:09:36;;;;;;;7.32;6.00;;;23.10;38.90;;;;;;4758476;29;20728;-58
2021/11/03 02:12:04;;;;;;;9.60;6.32;;;23.10;38.80;;;;;;4764834;29;20145;-58
2021/11/03 02:14:31;;;;;;;6.82;5.70;;;23.10;38.80;;;;;;4765731;29;20055;-59
2021/11/03 02:16:59;;;;;;;8.85;6.32;;;23.10;38.80;;;;;;4765478;29;20453;-58
2021/11/03 02:19:31;;;;;;;8.15;6.00;;;23.10;38.80;;;;;;4753896;29;20066;-58
2021/11/03 02:22:12;;;;;;;8.98;6.45;;;23.10;38.80;;;;;;4746825;30;20056;-58
2021/11/03 02:25:11;;;;;;;9.68;6.50;;;23.10;38.80;;;;;;4746943;30;20151;-58
2021/11/03 02:27:42;;;;;;;7.72;6.32;;;23.10;38.80;;;;;;4746818;30;20055;-59
2021/11/03 02:30:14;;;;;;;7.95;6.22;;;23.10;38.80;;;;;;4745653;30;20066;-58
2021/11/03 02:32:43;;;;;;;7.95;5.57;;;23.10;38.80;;;;;;4746904;30;20086;-58
2021/11/03 02:35:13;;;;;;;7.05;5.63;;;23.10;38.80;;;;;;4747043;30;20062;-58
2021/11/03 02:37:45;;;;;;;;;;;23.10;38.80;;;;;;4747188;30;21227;-58
2021/11/03 02:40:39;;;;;;;7.68;5.70;;;23.00;38.70;;;;;;4756849;30;19929;-58
2021/11/03 02:43:40;;;;;;;7.25;6.10;;;23.10;38.70;;;;;;4763346;30;20059;-58
2021/11/03 02:46:09;;;;;;;7.40;5.50;;;23.10;38.60;;;;;;4764352;29;20055;-58
2021/11/03 02:48:38;;;;;;;7.00;5.63;;;23.10;38.50;;;;;;4752612;29;20519;-58
2021/11/03 02:51:21;;;;;;;7.00;5.78;;;23.20;38.50;;;;;;4759135;30;20055;-58
2021/11/03 02:53:53;;;;;;;13.00;5.75;;;23.20;38.50;;;;;;4764117;29;20112;-58
2021/11/03 02:56:24;;;;;;;8.05;5.80;;;23.20;38.40;;;;;;4764847;29;20087;-58
2021/11/03 02:58:51;;;;;;;6.47;5.63;;;23.30;38.40;;;;;;4757590;29;20154;-58
2021/11/03 03:01:28;;;;;;;6.75;5.40;;;23.30;38.30;;;;;;4762737;29;20059;-58
2021/11/03 03:03:57;;;;;;;7.75;5.95;;;23.30;38.30;;;;;;4764633;29;20120;-58
2021/11/03 03:06:27;;;;;;;6.70;5.45;;;23.30;38.30;;;;;;4764168;29;20493;-59
2021/11/03 03:08:56;;;;;;;7.40;5.32;;;23.30;38.20;;;;;;4756950;29;20077;-58
2021/11/03 03:11:26;;;;;;;6.10;5.13;;;23.30;38.20;;;;;;4757201;29;20058;-59
2021/11/03 03:13:54;;;;;;;6.95;5.68;;;23.30;38.10;;;;;;4746338;30;20063;-58
2021/11/03 03:16:22;;;;;;;6.95;5.47;;;23.30;38.10;;;;;;4746290;30;20091;-58
2021/11/03 03:18:50;;;;;;;7.28;5.43;;;23.30;38.10;;;;;;4748047;29;20166;-58
2021/11/03 03:21:19;;;;;;;7.50;5.50;;;23.30;38.10;;;;;;4760328;30;20142;-58
2021/11/03 03:23:52;;;;;;;8.07;5.30;;;23.30;38.10;;;;;;4761991;29;20497;-58
2021/11/03 03:26:21;;;;;;;7.05;5.47;;;23.30;38.10;;;;;;4764409;29;20578;-58
2021/11/03 03:28:50;;;;;;;7.32;5.38;;;23.30;38.10;;;;;;4757469;29;20054;-58
2021/11/03 03:31:18;;;;;;;9.73;5.60;;;23.30;38.10;;;;;;4761201;29;20714;-58
2021/11/03 03:33:46;;;;;;;6.85;5.10;;;23.30;38.10;;;;;;4763709;29;20506;-58
2021/11/03 03:36:16;;;;;;;6.75;5.30;;;23.30;38.10;;;;;;4763988;29;20529;-58
2021/11/03 03:38:44;;;;;;;7.78;5.47;;;23.30;38.00;;;;;;4756376;29;20090;-58
2021/11/03 03:41:12;;;;;;;8.93;5.80;;;23.30;38.00;;;;;;4761353;29;20065;-58
2021/11/03 03:43:40;;;;;;;8.65;5.55;;;23.30;38.00;;;;;;4763507;29;20136;-58
2021/11/03 03:46:07;;;;;;;9.00;5.57;;;23.30;38.00;;;;;;4762241;30;20578;-58
2021/11/03 03:48:36;;;;;;;9.63;5.32;;;23.40;38.00;;;;;;4755855;29;20059;-58
2021/11/03 03:51:04;;;;;;;7.55;4.70;;;23.40;38.10;;;;;;4757498;30;20094;-58
2021/11/03 03:53:31;;;;;;;7.70;4.95;;;23.40;38.10;;;;;;4763481;29;20531;-58
2021/11/03 03:56:11;;;;;;;6.97;4.80;;;23.40;38.10;;;;;;4763992;29;20462;-58
2021/11/03 03:58:40;;;;;;;8.30;5.13;;;23.40;38.20;;;;;;4758832;29;20063;-58
2021/11/03 04:01:08;;;;;;;6.20;4.65;;;23.40;38.20;;;;;;4762174;29;20138;-58
2021/11/03 04:03:36;;;;;;;6.60;5.35;;;23.40;38.30;;;;;;4763606;29;20066;-58
2021/11/03 04:06:03;;;;;;;7.50;5.10;;;23.40;38.30;;;;;;4763469;29;20094;-58
2021/11/03 04:08:30;;;;;;;5.97;4.70;;;23.50;38.40;;;;;;4753989;29;20106;-58
2021/11/03 04:10:59;;;;;;;6.40;5.07;;;23.40;38.40;;;;;;4760588;29;20530;-59
2021/11/03 04:13:26;;;;;;;6.45;4.93;;;23.40;38.50;;;;;;4763557;29;20067;-58
2021/11/03 04:15:54;;;;;;;6.10;4.70;;;23.50;38.50;;;;;;4763351;29;20116;-58
2021/11/03 04:18:21;;;;;;;7.43;4.57;;;23.50;38.60;;;;;;4757663;29;20097;-58
2021/11/03 04:20:49;;;;;;;6.25;5.03;;;23.50;38.60;;;;;;4756995;29;20106;-58
2021/11/03 04:23:17;;;;;;;7.80;4.88;;;23.40;38.60;;;;;;4748085;30;20073;-58
2021/11/03 04:25:45;;;;;;;4.95;4.47;;;23.40;38.60;;;;;;4759946;30;20108;-58
2021/11/03 04:28:13;;;;;;;6.30;4.95;;;23.40;38.60;;;;;;4762377;29;20055;-58
2021/11/03 04:30:40;;;;;;;5.80;4.25;;;23.40;38.60;;;;;;4760754;29;20055;-58
2021/11/03 04:33:08;;;;;;;4.93;4.43;;;23.40;38.70;;;;;;4764152;29;20051;-58
2021/11/03 04:35:35;;;;;;;5.15;4.13;;;23.40;38.70;;;;;;4766183;29;20055;-58
2021/11/03 04:38:03;;;;;;;4.80;4.30;;;23.40;38.80;;;;;;4761424;29;20059;-58
2021/11/03 04:40:30;;;;;;;6.07;4.55;;;23.40;38.90;;;;;;4759888;29;20087;-58
2021/11/03 04:42:58;;;;;;;5.57;4.53;;;23.40;38.90;;;;;;4765926;30;20208;-58
2021/11/03 04:45:26;;;;;;;4.47;4.07;;;23.40;39.00;;;;;;4765779;29;20154;-58
2021/11/03 04:47:54;;;;;;;5.22;4.47;;;23.40;39.00;;;;;;4757494;29;20051;-58
2021/11/03 04:50:27;;;;;;;5.75;4.03;;;23.40;39.10;;;;;;4758143;29;20086;-58
2021/11/03 04:52:55;;;;;;;5.88;4.07;;;23.40;39.20;;;;;;4765147;30;20073;-58
2021/11/03 04:55:22;;;;;;;5.97;4.38;;;23.40;39.20;;;;;;4766444;29;20086;-58
2021/11/03 04:57:52;;;;;;;5.90;4.40;;;23.40;39.30;;;;;;4760121;29;20059;-58
2021/11/03 05:00:27;;;;;;;5.70;4.35;;;23.30;39.20;;;;;;4751589;30;20578;-58
2021/11/03 05:02:55;;;;;;;5.07;3.97;;;23.40;39.30;;;;;;4766988;29;20414;-58
2021/11/03 05:05:23;;;;;;;6.00;3.80;;;23.30;39.30;;;;;;4764619;29;20082;-59
2021/11/03 05:07:51;;;;;;;4.97;3.97;;;23.40;39.30;;;;;;4760527;29;20055;-58
2021/11/03 05:10:19;;;;;;;5.50;3.65;;;23.40;39.30;;;;;;4753203;29;20055;-58
2021/11/03 05:12:47;;;;;;;7.03;3.70;;;23.30;39.20;;;;;;4748007;30;20244;-58
2021/11/03 05:15:15;;;;;;;5.20;3.92;;;23.30;39.20;;;;;;4757155;30;20875;-58
2021/11/03 05:17:42;;;;;;;6.68;3.67;;;23.30;39.70;;;;;;4763965;29;20102;-59
2021/11/03 05:20:13;;;;;;;5.85;4.20;;;23.30;39.10;;;;;;4746996;29;20150;-58
2021/11/03 05:22:40;;;;;;;6.47;3.92;;;23.40;39.10;;;;;;4748654;30;20142;-58
2021/11/03 05:25:07;;;;;;;5.03;3.80;;;23.30;39.00;;;;;;4747833;30;20091;-60
2021/11/03 05:27:35;;;;;;;6.28;4.10;;;23.40;39.00;;;;;;4758247;29;20055;-59
2021/11/03 05:30:04;;;;;;;8.13;3.92;;;23.40;38.90;;;;;;4746159;29;20898;-58
2021/11/03 05:32:31;;;;;;;8.65;3.90;;;23.40;38.90;;;;;;4763765;30;20055;-57
2021/11/03 05:34:58;;;;;;;7.47;4.05;;;23.40;38.90;;;;;;4764542;29;20429;-58
2021/11/03 05:37:26;;;;;;;7.35;3.83;;;23.40;38.80;;;;;;4764032;30;20059;-58
2021/11/03 05:39:54;;;;;;;5.75;3.28;;;23.40;38.80;;;;;;4741782;30;20582;-58
2021/11/03 05:42:21;;;;;;;4.82;3.63;;;23.40;38.80;;;;;;4765419;29;20059;-58
2021/11/03 05:44:48;;;;;;;8.50;4.50;;;23.40;38.80;;;;;;4764475;29;20154;-58
2021/11/03 05:47:25;;;;;;;6.68;3.75;;;23.40;38.70;;;;;;4765310;29;20580;-58
2021/11/03 05:49:53;;;;;;;5.95;3.50;;;23.40;38.70;;;;;;4744377;29;20052;-58
2021/11/03 05:52:20;;;;;;;7.00;4.25;;;23.40;38.70;;;;;;4749095;30;20067;-58
2021/11/03 05:54:48;;;;;;;7.05;3.65;;;23.40;38.60;;;;;;4754924;29;20051;-58
2021/11/03 05:57:22;;;;;;;6.47;3.58;;;23.40;38.60;;;;;;4765700;29;20087;-58
2021/11/03 05:59:49;;;;;;;7.85;3.58;;;23.40;38.60;;;;;;4747867;29;20061;-58
2021/11/03 06:02:17;;;;;;;3.58;3.28;;;23.40;38.60;;;;;;4779099;29;20058;-58
2021/11/03 06:04:44;;;;;;;7.78;3.30;;;23.40;38.70;;;;;;4764161;29;20054;-58
2021/11/03 06:07:13;;;;;;;5.50;3.50;;;23.40;38.70;;;;;;4759191;30;20101;-58
2021/11/03 06:09:41;;;;;;;7.03;3.30;;;23.40;38.50;;;;;;4743633;29;20064;-58
2021/11/03 06:12:09;;;;;;;10.32;3.80;;;23.40;38.50;;;;;;4759450;30;20075;-57
2021/11/03 06:14:36;;;;;;;8.07;3.65;;;23.40;38.50;;;;;;4761536;30;20078;-57
2021/11/03 06:17:04;;;;;;;6.25;3.30;;;23.50;38.70;;;;;;4763380;29;20057;-59
2021/11/03 06:19:31;;;;;;;7.68;3.90;;;23.50;38.70;;;;;;4744182;29;20140;-59
2021/11/03 06:21:59;;;;;;;6.32;3.60;;;23.50;38.70;;;;;;4751647;29;20097;-59
2021/11/03 06:24:28;;;;;;;3.58;3.03;;;23.50;38.60;;;;;;4758949;30;20135;-59
2021/11/03 06:26:55;;;;;;;5.90;3.83;;;23.50;38.40;;;;;;4767253;29;20052;-59
2021/11/03 06:29:22;;;;;;;5.82;3.60;;;23.60;38.40;;;;;;4737075;29;20051;-59
2021/11/03 06:31:49;;;;;;;3.70;3.00;;;23.60;38.20;;;;;;4750910;29;20204;-59
2021/11/03 06:34:17;;;;;;;4.85;3.25;;;23.70;38.10;;;;;;4752001;29;20051;-59
2021/11/03 06:36:44;;;;;;;5.85;4.18;;;23.80;38.00;;;;;;4749301;30;21097;-60
2021/11/03 06:39:14;;;;;;;6.30;3.22;;;23.80;37.80;;;;;;4740820;29;20085;-60
2021/11/03 06:41:42;;;;;;;4.00;3.35;;;23.90;38.00;;;;;;4745744;29;20063;-59
2021/11/03 06:44:10;;;;;;;5.25;3.97;;;24.00;38.00;;;;;;4758460;30;20055;-59
2021/11/03 06:46:37;;;;;;;7.03;4.45;;;24.00;38.10;;;;;;4750590;29;20150;-59
2021/11/03 06:49:05;;;;;;;9.32;4.10;;;24.10;38.20;;;;;;4744300;29;20524;-61
2021/11/03 06:51:33;;;;;;;5.82;3.63;;;24.20;38.00;;;;;;4751302;30;20113;-59
2021/11/03 06:54:01;;;;;;;4.80;3.80;;;24.30;37.90;;;;;;4751675;29;20690;-59
2021/11/03 06:56:28;;;;;;;7.55;3.40;;;24.30;37.70;;;;;;4751032;29;20173;-59
2021/11/03 06:58:55;;;;;;;5.15;3.80;;;24.30;37.50;;;;;;4741274;29;20067;-59
2021/11/03 07:01:22;;;;;;;5.20;3.63;;;24.30;37.60;;;;;;4744117;29;20063;-59
2021/11/03 07:03:51;;;;;;;4.97;3.35;;;24.40;37.70;;;;;;4750565;30;20083;-59
2021/11/03 07:06:26;;;;;;;5.05;3.45;;;24.40;37.80;;;;;;5041050;27;20938;-59
2021/11/03 07:08:54;;;;;;;6.18;3.45;;;24.40;38.00;;;;;;5025566;28;20045;-60
2021/11/03 07:11:23;;;;;;;7.32;3.15;;;24.40;38.00;;;;;;5024347;28;20114;-60
2021/11/03 07:13:52;;;;;;;5.88;3.38;;;24.40;38.10;;;;;;5031083;28;20068;-60
2021/11/03 07:16:19;;;;;;;3.72;3.10;;;24.40;38.20;;;;;;5031541;28;20080;-59
2021/11/03 07:18:47;;;;;;;3.35;2.88;;;24.50;38.40;;;;;;5024527;28;20049;-59
2021/11/03 07:21:15;;;;;;;4.40;3.05;;;24.50;38.40;;;;;;5027893;28;20144;-58
2021/11/03 07:23:43;;;;;;;4.35;3.22;;;24.50;38.50;;;;;;5028821;28;20057;-59
2021/11/03 07:26:11;;;;;;;3.55;2.67;;;24.50;38.60;;;;;;5027897;28;20063;-58
2021/11/03 07:28:39;;;;;;;4.45;2.60;;;24.50;38.60;;;;;;5024137;28;20060;-59
2021/11/03 07:31:07;;;;;;;3.72;2.78;;;24.50;38.60;;;;;;5030547;28;20461;-59
2021/11/03 07:33:37;;;;;;;3.65;2.83;;;24.60;38.70;;;;;;5034405;28;20052;-58
2021/11/03 07:36:08;;;;;;;3.47;2.95;;;24.60;38.80;;;;;;5030270;28;20052;-58
2021/11/03 07:38:36;;;;;;;2.90;2.63;;;24.60;38.70;;;;;;5026239;28;20083;-58
2021/11/03 07:41:23;;;;;;;2.60;2.40;;;24.60;38.60;;;;;;5029116;28;20055;-58
2021/11/03 07:43:53;;;;;;;3.28;1.92;;;24.70;38.60;;;;;;5025300;28;21236;-58
2021/11/03 07:46:22;;;;;;;5.30;2.10;;;24.70;38.50;;;;;;5031377;28;20089;-58
2021/11/03 07:48:49;;;;;;;3.40;1.98;;;24.70;38.50;;;;;;5026949;28;20072;-57
2021/11/03 07:51:18;;;;;;;2.50;2.15;;;24.70;38.50;;;;;;5032397;28;20083;-58
2021/11/03 07:53:48;;;;;;;4.30;2.33;;;24.70;38.30;;;;;;5029157;28;20053;-57
2021/11/03 07:56:20;;;;;;;5.03;2.35;;;24.70;38.20;;;;;;5032373;28;20071;-58
2021/11/03 07:58:50;;;;;;;2.97;2.22;;;24.80;38.20;;;;;;5023125;28;21147;-58
2021/11/03 08:01:18;;;;;;;3.80;2.65;;;24.80;38.10;;;;;;5029956;28;20056;-57
2021/11/03 08:03:45;;;;;;;2.97;2.47;;;24.90;38.10;;;;;;5031310;28;20069;-58
2021/11/03 08:06:13;;;;;;;2.45;1.95;;;24.90;38.00;;;;;;5032670;28;20056;-58
2021/11/03 08:08:50;;;;;;;2.22;2.03;;;24.90;38.00;;;;;;5022967;28;20106;-57
2021/11/03 08:11:17;;;;;;;4.43;2.47;;;25.00;38.00;;;;;;5031365;28;20098;-57
2021/11/03 08:13:44;;;;;;;3.17;2.33;;;25.00;38.10;;;;;;5030816;28;20045;-57
2021/11/03 08:16:12;;;;;;;2.25;2.00;;;25.10;38.00;;;;;;5023725;28;20053;-57
2021/11/03 08:18:43;;;;;;;3.17;2.40;;;25.10;37.90;;;;;;5013335;28;20048;-58
2021/11/03 08:21:12;;;;;;;4.20;2.60;;;25.10;37.90;;;;;;5013020;28;20053;-59
2021/11/03 08:23:39;;;;;;;4.13;2.30;;;25.20;38.00;;;;;;5017119;28;20068;-58
2021/11/03 08:26:07;;;;;;;4.20;2.00;;;25.20;38.20;;;;;;5017244;28;20099;-58
2021/11/03 08:28:35;;;;;;;4.95;2.25;;;25.30;38.50;;;;;;5014184;28;20590;-58
2021/11/03 08:31:03;;;;;;;2.60;2.25;;;25.30;38.30;;;;;;5011981;28;20052;-58
2021/11/03 08:33:43;;;;;;;4.55;2.10;;;25.30;38.10;;;;;;5014908;28;20213;-57
2021/11/03 08:36:12;;;;;;;2.35;2.10;;;25.40;38.10;;;;;;5018177;28;20483;-57
2021/11/03 08:38:55;;;;;;;2.85;2.10;;;25.40;38.00;;;;;;5013104;28;20140;-58
2021/11/03 08:41:23;;;;;;;2.78;2.35;;;25.40;37.90;;;;;;5011893;28;20140;-57
2021/11/03 08:43:50;;;;;;;4.65;2.22;;;25.50;37.90;;;;;;5014457;28;20080;-57
2021/11/03 08:46:18;;;;;;;3.25;2.38;;;25.50;37.80;;;;;;5011180;28;20053;-57
2021/11/03 08:48:51;;;;;;;3.65;2.33;;;25.60;37.80;;;;;;5005030;28;20234;-57
2021/11/03 08:51:18;;;;;;;2.88;2.58;;;25.60;37.80;;;;;;5007644;28;20490;-57
2021/11/03 08:53:52;;;;;;;4.00;2.55;;;25.60;37.80;;;;;;5015473;28;20188;-57
2021/11/03 08:56:19;;;;;;;2.75;2.40;;;25.60;37.70;;;;;;5018525;28;20048;-57
2021/11/03 08:58:46;;;;;;;3.92;2.58;;;25.60;37.60;;;;;;5007947;28;20083;-58
2021/11/03 09:01:13;;;;;;;3.50;2.30;;;25.70;37.60;;;;;;5004729;28;20729;-57
2021/11/03 09:03:41;;;;;;;5.18;2.63;;;25.70;37.60;;;;;;5013009;28;20050;-58
2021/11/03 09:06:09;;;;;;;4.13;3.08;;;25.70;37.60;;;;;;5015435;28;20124;-58
2021/11/03 09:08:38;;;;;;;2.90;2.10;;;25.70;37.50;;;;;;5011372;28;20055;-58
2021/11/03 09:11:07;;;;;;;2.90;2.60;;;25.70;37.60;;;;;;5011018;28;20156;-58
2021/11/03 09:13:35;;;;;;;2.42;2.22;;;25.70;37.50;;;;;;5012437;28;20340;-58
2021/11/03 09:16:03;;;;;;;6.75;2.60;;;25.70;37.60;;;;;;5021061;28;20118;-58
2021/11/03 09:18:31;;;;;;;3.65;2.88;;;25.70;37.50;;;;;;5014779;28;20045;-58
2021/11/03 09:20:59;;;;;;;2.47;2.28;;;25.80;37.60;;;;;;5013814;28;20053;-59
2021/11/03 09:23:27;;;;;;;2.60;2.40;;;25.80;37.60;;;;;;5018016;28;20041;-58
2021/11/03 09:25:56;;;;;;;8.02;3.03;;;25.80;37.60;;;;;;5016820;28;20138;-58
2021/11/03 09:28:29;;;;;;;2.80;2.22;;;25.80;37.60;;;;;;5012170;28;20379;-58
2021/11/03 09:30:58;;;;;;;3.00;2.53;;;25.80;37.50;;;;;;5008738;28;20095;-58
2021/11/03 09:33:26;;;;;;;2.40;2.13;;;25.80;37.50;;;;;;5016436;28;20060;-58
2021/11/03 09:35:54;;;;;;;3.95;2.85;;;25.80;37.60;;;;;;5013576;28;20080;-58
2021/11/03 09:38:25;;;;;;;2.83;2.38;;;25.80;37.60;;;;;;5007779;28;20136;-58
2021/11/03 09:41:18;;;;;;;3.28;2.67;;;25.90;37.60;;;;;;5009810;28;20084;-58
2021/11/03 09:43:52;;;;;;;3.33;2.88;;;25.80;37.60;;;;;;5012940;28;20075;-59
2021/11/03 09:46:39;;;;;;;3.88;2.65;;;25.90;37.60;;;;;;5013668;28;20103;-58
2021/11/03 09:49:31;;;;;;;3.35;3.05;;;25.90;37.40;;;;;;5003336;28;20050;-60
2021/11/03 09:52:11;;;;;;;2.85;2.55;;;26.00;37.40;;;;;;5014884;28;20429;-58
2021/11/03 09:54:38;;;;;;;3.22;2.65;;;26.00;37.10;;;;;;5014978;28;20049;-58
2021/11/03 09:57:40;;;;;;;3.25;2.95;;;26.00;36.90;;;;;;5018905;28;20052;-58
2021/11/03 10:00:44;;;;;;;4.22;2.90;;;26.00;36.80;;;;;;5004432;28;20056;-58
2021/11/03 10:03:41;;;;;;;3.10;2.80;;;26.00;36.70;;;;;;5015009;28;20730;-59
2021/11/03 10:06:32;;;;;;;4.47;3.17;;;26.00;36.70;;;;;;5012189;28;20057;-59
2021/11/03 10:08:59;;;;;;;4.22;2.40;;;26.00;36.80;;;;;;5006491;28;20076;-59
2021/11/03 10:11:40;;;;;;;5.30;3.15;;;26.10;36.90;;;;;;5011390;28;20052;-60
2021/11/03 10:14:09;;;;;;;4.05;3.20;;;26.10;37.00;;;;;;5012247;28;20502;-58
2021/11/03 10:16:39;;;;;;;4.80;3.10;;;26.10;37.00;;;;;;5014330;28;20045;-58
2021/11/03 10:19:33;;;;;;;3.63;2.95;;;26.20;37.00;;;;;;5002481;28;20532;-58
2021/11/03 10:22:35;;;;;;;3.35;2.97;;;26.20;36.80;;;;;;5009620;28;20491;-58
2021/11/03 10:25:20;;;;;;;3.17;2.88;;;26.30;36.90;;;;;;5016503;28;20049;-58
2021/11/03 10:27:59;;;;;;;4.13;2.75;;;26.30;37.40;;;;;;5037067;28;20049;-58
2021/11/03 10:30:33;;;;;;;3.97;3.05;;;26.30;36.80;;;;;;5005330;28;20489;-58
2021/11/03 10:33:21;;;;;;;5.65;3.35;;;26.40;36.80;;;;;;5018934;28;20403;-58
2021/11/03 10:36:09;;;;;;;3.40;2.80;;;26.40;36.80;;;;;;5013657;28;20095;-58
2021/11/03 10:38:42;;;;;;;2.90;2.55;;;26.40;36.80;;;;;;5009040;28;20115;-58
2021/11/03 10:41:27;;;;;;;5.05;3.05;;;26.40;36.80;;;;;;5002748;28;20049;-58
2021/11/03 10:44:05;;;;;;;3.35;3.05;;;26.40;36.80;;;;;;5014897;28;20080;-58
2021/11/03 10:46:53;;;;;;;5.70;3.15;;;26.40;36.70;;;;;;5011434;28;20097;-58
2021/11/03 10:49:31;;;;;;;3.65;2.65;;;26.50;36.70;;;;;;5004449;28;20083;-58
2021/11/03 10:52:14;;;;;;;4.28;3.80;;;26.50;36.80;;;;;;5014327;28;20466;-58
2021/11/03 10:54:54;;;;;;;4.93;3.38;;;26.50;36.80;;;;;;5013771;28;20049;-57
2021/11/03 10:57:42;;;;;;;7.37;3.03;;;26.60;36.80;;;;;;5018489;28;20472;-58
2021/11/03 11:00:31;;;;;;;4.70;3.60;;;26.50;36.90;;;;;;5004514;28;20048;-58
2021/11/03 11:03:15;;;;;;;14.82;3.85;;;26.60;36.90;;;;;;5011941;28;20140;-58
2021/11/03 11:05:48;;;;;;;3.72;2.80;;;26.60;36.80;;;;;;5019218;28;20488;-58
2021/11/03 11:08:23;;;;;;;3.33;3.00;;;26.60;36.70;;;;;;5014344;28;20156;-58
2021/11/03 11:11:08;;;;;;;3.10;2.58;;;26.60;36.60;;;;;;5009660;28;20098;-56
2021/11/03 11:13:53;;;;;;;3.38;2.70;;;26.60;36.40;;;;;;5015313;28;20759;-56
2021/11/03 11:16:30;;;;;;;3.10;2.80;;;26.60;36.30;;;;;;5017111;28;20505;-58
2021/11/03 11:19:16;;;;;;;6.80;3.42;;;26.60;36.30;;;;;;5003779;28;20068;-58
2021/11/03 11:22:12;;;;;;;2.58;2.38;;;26.60;36.60;;;;;;5011589;28;20143;-57
2021/11/03 11:25:03;;;;;;;2.85;2.55;;;26.50;36.50;;;;;;5012522;28;20103;-57
2021/11/03 11:27:36;;;;;;;4.60;3.28;;;26.50;36.50;;;;;;5008666;28;20679;-58
2021/11/03 11:30:17;;;;;;;6.63;2.47;;;26.50;36.70;;;;;;4999770;28;20368;-59
2021/11/03 11:33:22;;;;;;;4.75;2.47;;;26.50;36.50;;;;;;5014951;28;20076;-59
2021/11/03 11:36:12;;;;;;;5.18;2.95;;;26.50;36.80;;;;;;5018785;28;20077;-58
2021/11/03 11:39:13;;;;;;;4.20;2.83;;;26.40;36.90;;;;;;5014549;28;20106;-58
2021/11/03 11:42:06;;;;;;;5.78;2.53;;;26.50;37.10;;;;;;5013097;28;20461;-59
2021/11/03 11:44:39;;;;;;;2.97;2.58;;;26.50;37.10;;;;;;5018103;28;20187;-58
2021/11/03 11:47:15;;;;;;;3.88;2.70;;;26.50;37.20;;;;;;5016534;28;20088;-58
2021/11/03 11:49:45;;;;;;;3.47;2.63;;;26.50;37.50;;;;;;5006744;28;20111;-58
2021/11/03 11:52:23;;;;;;;2.40;2.20;;;26.60;37.60;;;;;;5018409;28;20049;-58
2021/11/03 11:55:21;;;;;;;4.28;2.58;;;26.60;37.70;;;;;;5017102;28;20769;-58
2021/11/03 11:58:10;;;;;;;10.40;2.75;;;26.60;37.50;;;;;;5011292;28;20073;-58
2021/11/03 12:00:59;;;;;;;3.63;2.25;;;26.60;37.20;;;;;;5013128;28;20102;-57
2021/11/03 12:03:28;;;;;;;3.50;2.95;;;26.60;37.00;;;;;;5021327;28;20048;-58
2021/11/03 12:06:15;;;;;;;1.98;1.88;;;26.70;37.10;;;;;;5020494;28;20497;-57
2021/11/03 12:09:21;;;;;;;2.70;2.40;;;26.60;36.90;;;;;;5009550;28;20154;-57
2021/11/03 12:12:21;;;;;;;3.72;3.10;;;26.70;36.80;;;;;;5016527;28;20088;-58
2021/11/03 12:14:54;;;;;;;4.25;2.30;;;26.70;36.70;;;;;;5000193;28;20148;-58
2021/11/03 12:17:56;;;;;;;3.50;2.08;;;26.70;36.50;;;;;;5020631;28;20063;-57
2021/11/03 12:20:45;;;;;;;5.65;2.22;;;26.70;36.60;;;;;;5008671;28;20135;-57
2021/11/03 12:23:44;;;;;;;3.70;2.65;;;26.70;36.70;;;;;;5023886;28;20053;-57
2021/11/03 12:26:32;;;;;;;4.60;2.60;;;26.70;36.80;;;;;;5015102;28;20100;-58
2021/11/03 12:29:25;;;;;;;7.20;2.85;;;26.70;36.80;;;;;;5014278;28;20048;-57
2021/11/03 12:31:57;;;;;;;4.03;2.35;;;26.80;36.70;;;;;;5014795;28;20076;-57
2021/11/03 12:34:39;;;;;;;4.35;2.65;;;26.80;36.70;;;;;;5020029;28;20441;-57
2021/11/03 12:37:33;;;;;;;3.70;2.15;;;26.80;36.70;;;;;;5019437;28;20911;-58
2021/11/03 12:40:21;;;;;;;3.30;2.30;;;26.80;36.60;;;;;;5004920;28;20056;-56
2021/11/03 12:42:55;;;;;;;2.38;2.17;;;26.80;36.50;;;;;;5007484;28;20059;-56
2021/11/03 12:45:47;;;;;;;2.15;2.05;;;26.80;36.60;;;;;;5012557;28;20566;-58
2021/11/03 12:48:27;;;;;;;4.88;2.28;;;26.80;36.60;;;;;;5011140;28;20057;-58
2021/11/03 12:50:55;;;;;;;2.88;2.35;;;26.80;36.70;;;;;;5012774;28;20048;-58
2021/11/03 12:53:31;;;;;;;4.32;2.20;;;26.80;36.60;;;;;;5016724;28;20617;-58
2021/11/03 12:56:11;;;;;;;4.88;2.30;;;26.80;36.40;;;;;;5019339;28;20142;-58
2021/11/03 12:58:52;;;;;;;2.97;2.10;;;26.80;36.40;;;;;;5015038;28;20534;-58
2021/11/03 13:01:29;;;;;;;2.95;2.20;;;26.80;36.30;;;;;;5012834;28;20151;-57
2021/11/03 13:04:01;;;;;;;2.53;2.30;;;26.80;36.30;;;;;;5017968;28;20567;-57
2021/11/03 13:06:35;;;;;;;3.03;2.53;;;26.80;36.30;;;;;;5017463;28;20057;-58
2021/11/03 13:09:04;;;;;;;2.80;2.28;;;26.80;36.40;;;;;;5013149;28;20053;-57
2021/11/03 13:11:38;;;;;;;3.72;2.33;;;26.80;36.40;;;;;;5015989;28;20052;-58
2021/11/03 13:14:18;;;;;;;4.90;2.65;;;26.80;36.40;;;;;;5021419;28;20045;-56
2021/11/03 13:16:48;;;;;;;2.63;1.88;;;26.80;36.40;;;;;;5014284;28;20060;-57